Bay City, Michigan
Current Conditions -  °F | °C
As of 8:53 AM on Monday 22 Dec 2014 (Local Time) from KMBS Reporting Station
Haze Haze  
Wind Chill: -6°   Ceiling: Unl
Heat Index: -3°   Visibility: 5mi
Dew Point: -5°   Wind: 6mph
Humidity: 85%   Direction: 110°ESE
Pressure: 30.1"   Gusts: NA
Location:  43.6°N, 83.88°W
Report Text: KMBS 221353Z 11005KT 5SM BR CLR M03/M05 A3010 RMK AO2 SLP202 T10281050
Loading
Personal Weather Stations






























Interactive Weather Map New forecast layout! Learn more

10-Day Weather Forecast

Advertisements
Track Severe Weather on mobile